Lake Arthur, Louisiana
Current Conditions -  °F | °C
As of 7:35 PM on Thursday 27 Nov 2014 (Local Time) from K3R7 Reporting Station
Clear Clear  
Wind Chill:   Ceiling: Unl
Heat Index:   Visibility: 10mi
Dew Point:   Wind: 7mph
Humidity: 64%   Direction: 60°ENE
Pressure: 30.45"   Gusts: NA
Location:  30.08°N, 92.67°W
Report Text: K3R7 280135Z AUTO 06006KT 10SM CLR 09/02 A3045 RMK AO2 T00850020
Loading
Personal Weather Stations






























Interactive Weather Map New forecast layout! Learn more

10-Day Weather Forecast

Advertisements
Track Severe Weather on mobile